sensor_id;sensor_type;location;lat;lon;timestamp;temperature;humidity
12655;DHT22;6392;44.644;11.448;2024-01-16T00:02:02;3.70;99.90
12655;DHT22;6392;44.644;11.448;2024-01-16T00:04:29;3.80;99.90
12655;DHT22;6392;44.644;11.448;2024-01-16T00:06:58;3.80;99.90
12655;DHT22;6392;44.644;11.448;2024-01-16T00:09:25;3.90;99.90
12655;DHT22;6392;44.644;11.448;2024-01-16T00:11:52;3.90;99.90
12655;DHT22;6392;44.644;11.448;2024-01-16T00:14:20;3.90;99.90
12655;DHT22;6392;44.644;11.448;2024-01-16T00:16:47;3.80;99.90
12655;DHT22;6392;44.644;11.448;2024-01-16T00:19:14;3.50;99.90
12655;DHT22;6392;44.644;11.448;2024-01-16T00:21:42;3.30;99.90
12655;DHT22;6392;44.644;11.448;2024-01-16T00:24:12;3.10;99.90
12655;DHT22;6392;44.644;11.448;2024-01-16T00:26:40;2.90;99.90
12655;DHT22;6392;44.644;11.448;2024-01-16T00:29:07;2.80;99.90
12655;DHT22;6392;44.644;11.448;2024-01-16T00:31:37;2.80;99.90
12655;DHT22;6392;44.644;11.448;2024-01-16T00:34:04;2.80;99.90
12655;DHT22;6392;44.644;11.448;2024-01-16T00:36:31;2.90;99.90
12655;DHT22;6392;44.644;11.448;2024-01-16T00:38:58;3.10;99.90
12655;DHT22;6392;44.644;11.448;2024-01-16T00:41:27;3.10;99.90
12655;DHT22;6392;44.644;11.448;2024-01-16T00:43:54;2.90;99.90
12655;DHT22;6392;44.644;11.448;2024-01-16T00:46:21;2.80;99.90
12655;DHT22;6392;44.644;11.448;2024-01-16T00:48:48;2.70;99.90
12655;DHT22;6392;44.644;11.448;2024-01-16T00:51:15;2.60;99.90
12655;DHT22;6392;44.644;11.448;2024-01-16T00:53:43;2.60;99.90
12655;DHT22;6392;44.644;11.448;2024-01-16T00:56:11;2.60;99.90
12655;DHT22;6392;44.644;11.448;2024-01-16T00:58:40;2.60;99.90
12655;DHT22;6392;44.644;11.448;2024-01-16T01:01:07;2.70;99.90
12655;DHT22;6392;44.644;11.448;2024-01-16T01:03:34;2.70;99.90
12655;DHT22;6392;44.644;11.448;2024-01-16T01:06:01;2.70;99.90
12655;DHT22;6392;44.644;11.448;2024-01-16T01:08:28;2.60;99.90
12655;DHT22;6392;44.644;11.448;2024-01-16T01:10:55;2.60;99.90
12655;DHT22;6392;44.644;11.448;2024-01-16T01:13:22;2.70;99.90
12655;DHT22;6392;44.644;11.448;2024-01-16T01:15:52;2.70;99.90
12655;DHT22;6392;44.644;11.448;2024-01-16T01:18:19;2.70;99.90
12655;DHT22;6392;44.644;11.448;2024-01-16T01:20:46;2.70;99.90
12655;DHT22;6392;44.644;11.448;2024-01-16T01:23:13;2.70;99.90
12655;DHT22;6392;44.644;11.448;2024-01-16T01:25:40;2.80;99.90
12655;DHT22;6392;44.644;11.448;2024-01-16T01:28:08;2.70;99.90
12655;DHT22;6392;44.644;11.448;2024-01-16T01:30:36;2.60;99.90
12655;DHT22;6392;44.644;11.448;2024-01-16T01:33:05;2.50;99.90
12655;DHT22;6392;44.644;11.448;2024-01-16T01:35:32;2.40;99.90
12655;DHT22;6392;44.644;11.448;2024-01-16T01:37:59;2.20;99.90
12655;DHT22;6392;44.644;11.448;2024-01-16T01:40:26;2.10;99.90
12655;DHT22;6392;44.644;11.448;2024-01-16T01:42:53;2.10;99.90
12655;DHT22;6392;44.644;11.448;2024-01-16T01:45:20;2.10;99.90
12655;DHT22;6392;44.644;11.448;2024-01-16T01:47:48;2.10;99.90
12655;DHT22;6392;44.644;11.448;2024-01-16T01:50:17;2.10;99.90
12655;DHT22;6392;44.644;11.448;2024-01-16T01:52:44;2.10;99.90
12655;DHT22;6392;44.644;11.448;2024-01-16T01:55:13;2.10;99.90
12655;DHT22;6392;44.644;11.448;2024-01-16T01:57:40;2.00;99.90
12655;DHT22;6392;44.644;11.448;2024-01-16T02:00:09;2.00;99.90
12655;DHT22;6392;44.644;11.448;2024-01-16T02:02:36;2.00;99.90
12655;DHT22;6392;44.644;11.448;2024-01-16T02:05:04;2.00;99.90
12655;DHT22;6392;44.644;11.448;2024-01-16T02:07:33;2.00;99.90
12655;DHT22;6392;44.644;11.448;2024-01-16T02:10:01;2.00;99.90
12655;DHT22;6392;44.644;11.448;2024-01-16T02:12:29;2.00;99.90
12655;DHT22;6392;44.644;11.448;2024-01-16T02:14:56;1.90;99.90
12655;DHT22;6392;44.644;11.448;2024-01-16T02:17:23;1.90;99.90
12655;DHT22;6392;44.644;11.448;2024-01-16T02:19:50;1.80;99.90
12655;DHT22;6392;44.644;11.448;2024-01-16T02:22:20;1.70;99.90
12655;DHT22;6392;44.644;11.448;2024-01-16T02:24:49;1.70;99.90
12655;DHT22;6392;44.644;11.448;2024-01-16T02:27:16;1.70;99.90
12655;DHT22;6392;44.644;11.448;2024-01-16T02:29:44;1.70;99.90
12655;DHT22;6392;44.644;11.448;2024-01-16T02:32:12;1.70;99.90
12655;DHT22;6392;44.644;11.448;2024-01-16T02:34:40;1.70;99.90
12655;DHT22;6392;44.644;11.448;2024-01-16T02:37:07;1.80;99.90
12655;DHT22;6392;44.644;11.448;2024-01-16T02:39:34;1.80;99.90
12655;DHT22;6392;44.644;11.448;2024-01-16T02:42:03;1.80;99.90
12655;DHT22;6392;44.644;11.448;2024-01-16T02:44:30;1.80;99.90
12655;DHT22;6392;44.644;11.448;2024-01-16T02:46:57;1.80;99.90
12655;DHT22;6392;44.644;11.448;2024-01-16T02:49:24;1.80;99.90
12655;DHT22;6392;44.644;11.448;2024-01-16T02:51:52;1.80;99.90
12655;DHT22;6392;44.644;11.448;2024-01-16T02:54:20;1.80;99.90
12655;DHT22;6392;44.644;11.448;2024-01-16T02:56:47;1.80;99.90
12655;DHT22;6392;44.644;11.448;2024-01-16T02:59:16;1.70;99.90
12655;DHT22;6392;44.644;11.448;2024-01-16T03:01:43;1.70;99.90
12655;DHT22;6392;44.644;11.448;2024-01-16T03:04:10;1.60;99.90
12655;DHT22;6392;44.644;11.448;2024-01-16T03:06:37;1.60;99.90
12655;DHT22;6392;44.644;11.448;2024-01-16T03:09:04;1.60;99.90
12655;DHT22;6392;44.644;11.448;2024-01-16T03:11:32;1.60;99.90
12655;DHT22;6392;44.644;11.448;2024-01-16T03:13:59;1.60;99.90
12655;DHT22;6392;44.644;11.448;2024-01-16T03:16:27;1.60;99.90
12655;DHT22;6392;44.644;11.448;2024-01-16T03:18:54;1.60;99.90
12655;DHT22;6392;44.644;11.448;2024-01-16T03:21:21;1.60;99.90
12655;DHT22;6392;44.644;11.448;2024-01-16T03:23:49;1.60;99.90
12655;DHT22;6392;44.644;11.448;2024-01-16T03:26:16;1.60;99.90
12655;DHT22;6392;44.644;11.448;2024-01-16T03:28:43;1.60;99.90
12655;DHT22;6392;44.644;11.448;2024-01-16T03:31:12;1.60;99.90
12655;DHT22;6392;44.644;11.448;2024-01-16T03:33:41;1.60;99.90
12655;DHT22;6392;44.644;11.448;2024-01-16T03:36:09;1.60;99.90
12655;DHT22;6392;44.644;11.448;2024-01-16T03:38:38;1.60;99.90
12655;DHT22;6392;44.644;11.448;2024-01-16T03:41:05;1.60;99.90
12655;DHT22;6392;44.644;11.448;2024-01-16T03:43:33;1.60;99.90
12655;DHT22;6392;44.644;11.448;2024-01-16T03:46:01;1.60;99.90
12655;DHT22;6392;44.644;11.448;2024-01-16T03:48:28;1.60;99.90
12655;DHT22;6392;44.644;11.448;2024-01-16T03:50:57;1.60;99.90
12655;DHT22;6392;44.644;11.448;2024-01-16T03:53:24;1.60;99.90
12655;DHT22;6392;44.644;11.448;2024-01-16T03:55:51;1.60;99.90
12655;DHT22;6392;44.644;11.448;2024-01-16T03:58:18;1.60;99.90
12655;DHT22;6392;44.644;11.448;2024-01-16T04:00:47;1.70;99.90
12655;DHT22;6392;44.644;11.448;2024-01-16T04:03:17;1.60;99.90
12655;DHT22;6392;44.644;11.448;2024-01-16T04:05:44;1.60;99.90
12655;DHT22;6392;44.644;11.448;2024-01-16T04:08:12;1.60;99.90
12655;DHT22;6392;44.644;11.448;2024-01-16T04:10:39;1.60;99.90
12655;DHT22;6392;44.644;11.448;2024-01-16T04:13:07;1.50;99.90
12655;DHT22;6392;44.644;11.448;2024-01-16T04:15:37;1.50;99.90
12655;DHT22;6392;44.644;11.448;2024-01-16T04:18:05;1.50;99.90
12655;DHT22;6392;44.644;11.448;2024-01-16T04:20:32;1.50;99.90
12655;DHT22;6392;44.644;11.448;2024-01-16T04:22:59;1.50;99.90
12655;DHT22;6392;44.644;11.448;2024-01-16T04:25:27;1.50;99.90
12655;DHT22;6392;44.644;11.448;2024-01-16T04:27:55;1.40;99.90
12655;DHT22;6392;44.644;11.448;2024-01-16T04:30:22;1.40;99.90
12655;DHT22;6392;44.644;11.448;2024-01-16T04:32:49;1.30;99.90
12655;DHT22;6392;44.644;11.448;2024-01-16T04:35:16;1.20;99.90
12655;DHT22;6392;44.644;11.448;2024-01-16T04:37:43;1.20;99.90
12655;DHT22;6392;44.644;11.448;2024-01-16T04:40:10;1.20;99.90
12655;DHT22;6392;44.644;11.448;2024-01-16T04:42:39;1.10;99.90
12655;DHT22;6392;44.644;11.448;2024-01-16T04:45:07;1.10;99.90
12655;DHT22;6392;44.644;11.448;2024-01-16T04:47:34;1.10;99.90
12655;DHT22;6392;44.644;11.448;2024-01-16T04:50:01;1.20;99.90
12655;DHT22;6392;44.644;11.448;2024-01-16T04:52:29;1.20;99.90
12655;DHT22;6392;44.644;11.448;2024-01-16T04:54:56;1.10;99.90
12655;DHT22;6392;44.644;11.448;2024-01-16T04:57:23;1.10;99.90
12655;DHT22;6392;44.644;11.448;2024-01-16T04:59:51;1.10;99.90
12655;DHT22;6392;44.644;11.448;2024-01-16T05:02:19;1.00;99.90
12655;DHT22;6392;44.644;11.448;2024-01-16T05:04:46;1.00;99.90
12655;DHT22;6392;44.644;11.448;2024-01-16T05:07:17;0.90;99.90
12655;DHT22;6392;44.644;11.448;2024-01-16T05:09:45;0.90;99.90
12655;DHT22;6392;44.644;11.448;2024-01-16T05:12:12;1.00;99.90
12655;DHT22;6392;44.644;11.448;2024-01-16T05:14:40;0.90;99.90
12655;DHT22;6392;44.644;11.448;2024-01-16T05:17:08;0.90;99.90
12655;DHT22;6392;44.644;11.448;2024-01-16T05:19:35;0.90;99.90
12655;DHT22;6392;44.644;11.448;2024-01-16T05:22:02;0.80;99.90
12655;DHT22;6392;44.644;11.448;2024-01-16T05:24:30;0.80;99.90
12655;DHT22;6392;44.644;11.448;2024-01-16T05:26:57;0.80;99.90
12655;DHT22;6392;44.644;11.448;2024-01-16T05:29:24;0.90;99.90
12655;DHT22;6392;44.644;11.448;2024-01-16T05:31:51;0.90;99.90
12655;DHT22;6392;44.644;11.448;2024-01-16T05:34:19;0.90;99.90
12655;DHT22;6392;44.644;11.448;2024-01-16T05:36:46;0.80;99.90
12655;DHT22;6392;44.644;11.448;2024-01-16T05:39:13;0.80;99.90
12655;DHT22;6392;44.644;11.448;2024-01-16T05:41:40;0.80;99.90
12655;DHT22;6392;44.644;11.448;2024-01-16T05:44:07;0.80;99.90
12655;DHT22;6392;44.644;11.448;2024-01-16T05:46:35;0.70;99.90
12655;DHT22;6392;44.644;11.448;2024-01-16T05:49:02;0.70;99.90
12655;DHT22;6392;44.644;11.448;2024-01-16T05:51:30;0.70;99.90
12655;DHT22;6392;44.644;11.448;2024-01-16T05:53:57;0.70;99.90
12655;DHT22;6392;44.644;11.448;2024-01-16T05:56:24;0.60;99.90
12655;DHT22;6392;44.644;11.448;2024-01-16T05:58:51;0.60;99.90
12655;DHT22;6392;44.644;11.448;2024-01-16T06:01:19;0.60;99.90
12655;DHT22;6392;44.644;11.448;2024-01-16T06:03:46;0.50;99.90
12655;DHT22;6392;44.644;11.448;2024-01-16T06:06:14;0.60;99.90
12655;DHT22;6392;44.644;11.448;2024-01-16T06:08:43;0.50;99.90
12655;DHT22;6392;44.644;11.448;2024-01-16T06:11:10;0.50;99.90
12655;DHT22;6392;44.644;11.448;2024-01-16T06:13:38;0.50;99.90
12655;DHT22;6392;44.644;11.448;2024-01-16T06:16:06;0.40;99.90
12655;DHT22;6392;44.644;11.448;2024-01-16T06:18:33;0.40;99.90
12655;DHT22;6392;44.644;11.448;2024-01-16T06:21:01;0.30;99.90
12655;DHT22;6392;44.644;11.448;2024-01-16T06:23:28;0.30;99.90
12655;DHT22;6392;44.644;11.448;2024-01-16T06:25:56;0.30;99.90
12655;DHT22;6392;44.644;11.448;2024-01-16T06:28:23;0.20;99.90
12655;DHT22;6392;44.644;11.448;2024-01-16T06:30:50;0.20;99.90
12655;DHT22;6392;44.644;11.448;2024-01-16T06:33:17;0.20;99.90
12655;DHT22;6392;44.644;11.448;2024-01-16T06:35:44;0.20;99.90
12655;DHT22;6392;44.644;11.448;2024-01-16T06:38:11;0.20;99.90
12655;DHT22;6392;44.644;11.448;2024-01-16T06:40:38;0.20;99.90
12655;DHT22;6392;44.644;11.448;2024-01-16T06:43:07;0.10;99.90
12655;DHT22;6392;44.644;11.448;2024-01-16T06:45:34;0.20;99.90
12655;DHT22;6392;44.644;11.448;2024-01-16T06:48:01;0.20;99.90
12655;DHT22;6392;44.644;11.448;2024-01-16T06:50:28;0.20;99.90
12655;DHT22;6392;44.644;11.448;2024-01-16T06:52:55;0.20;99.90
12655;DHT22;6392;44.644;11.448;2024-01-16T06:55:23;0.20;99.90
12655;DHT22;6392;44.644;11.448;2024-01-16T06:57:50;0.20;99.90
12655;DHT22;6392;44.644;11.448;2024-01-16T07:00:19;0.20;99.90
12655;DHT22;6392;44.644;11.448;2024-01-16T07:02:48;0.20;99.90
12655;DHT22;6392;44.644;11.448;2024-01-16T07:05:17;0.20;99.90
12655;DHT22;6392;44.644;11.448;2024-01-16T07:07:44;0.20;99.90
12655;DHT22;6392;44.644;11.448;2024-01-16T07:10:11;0.40;99.90
12655;DHT22;6392;44.644;11.448;2024-01-16T07:12:43;0.60;99.90
12655;DHT22;6392;44.644;11.448;2024-01-16T07:15:10;0.60;99.90
12655;DHT22;6392;44.644;11.448;2024-01-16T07:17:39;0.50;99.90
12655;DHT22;6392;44.644;11.448;2024-01-16T07:20:07;0.40;99.90
12655;DHT22;6392;44.644;11.448;2024-01-16T07:22:34;0.20;99.90
12655;DHT22;6392;44.644;11.448;2024-01-16T07:25:01;0.20;99.90
12655;DHT22;6392;44.644;11.448;2024-01-16T07:27:28;0.20;99.90
12655;DHT22;6392;44.644;11.448;2024-01-16T07:29:55;0.10;99.90
12655;DHT22;6392;44.644;11.448;2024-01-16T07:32:22;0.20;99.90
12655;DHT22;6392;44.644;11.448;2024-01-16T07:34:51;0.20;99.90
12655;DHT22;6392;44.644;11.448;2024-01-16T07:37:18;0.20;99.90
12655;DHT22;6392;44.644;11.448;2024-01-16T07:39:45;0.20;99.90
12655;DHT22;6392;44.644;11.448;2024-01-16T07:42:12;0.20;99.90
12655;DHT22;6392;44.644;11.448;2024-01-16T07:44:39;0.30;99.90
12655;DHT22;6392;44.644;11.448;2024-01-16T07:47:07;0.40;99.90
12655;DHT22;6392;44.644;11.448;2024-01-16T07:49:34;0.50;99.90
12655;DHT22;6392;44.644;11.448;2024-01-16T07:52:03;0.60;99.90
12655;DHT22;6392;44.644;11.448;2024-01-16T07:54:30;0.60;99.90
12655;DHT22;6392;44.644;11.448;2024-01-16T07:56:57;0.70;99.90
12655;DHT22;6392;44.644;11.448;2024-01-16T07:59:25;0.80;99.90
12655;DHT22;6392;44.644;11.448;2024-01-16T08:01:52;0.80;99.90
12655;DHT22;6392;44.644;11.448;2024-01-16T08:04:20;0.90;99.90
12655;DHT22;6392;44.644;11.448;2024-01-16T08:06:47;0.90;99.90
12655;DHT22;6392;44.644;11.448;2024-01-16T08:09:16;1.00;99.90
12655;DHT22;6392;44.644;11.448;2024-01-16T08:11:43;1.00;99.90
12655;DHT22;6392;44.644;11.448;2024-01-16T08:14:10;1.10;99.90
12655;DHT22;6392;44.644;11.448;2024-01-16T08:16:37;1.10;99.90
12655;DHT22;6392;44.644;11.448;2024-01-16T08:19:04;1.20;99.90
12655;DHT22;6392;44.644;11.448;2024-01-16T08:21:31;1.20;99.90
12655;DHT22;6392;44.644;11.448;2024-01-16T08:23:58;1.30;99.90
12655;DHT22;6392;44.644;11.448;2024-01-16T08:26:26;1.30;99.90
12655;DHT22;6392;44.644;11.448;2024-01-16T08:28:54;1.30;99.90
12655;DHT22;6392;44.644;11.448;2024-01-16T08:31:21;1.40;99.90
12655;DHT22;6392;44.644;11.448;2024-01-16T08:33:48;1.40;99.90
12655;DHT22;6392;44.644;11.448;2024-01-16T08:36:15;1.40;99.90
12655;DHT22;6392;44.644;11.448;2024-01-16T08:38:42;1.40;99.90
12655;DHT22;6392;44.644;11.448;2024-01-16T08:41:09;1.50;99.90
12655;DHT22;6392;44.644;11.448;2024-01-16T08:43:37;1.50;99.90
12655;DHT22;6392;44.644;11.448;2024-01-16T08:46:04;1.60;99.90
12655;DHT22;6392;44.644;11.448;2024-01-16T08:48:32;1.60;99.90
12655;DHT22;6392;44.644;11.448;2024-01-16T08:50:59;1.70;99.90
12655;DHT22;6392;44.644;11.448;2024-01-16T08:53:26;1.70;99.90
12655;DHT22;6392;44.644;11.448;2024-01-16T08:55:53;1.70;99.90
12655;DHT22;6392;44.644;11.448;2024-01-16T08:58:20;1.80;99.90
12655;DHT22;6392;44.644;11.448;2024-01-16T09:00:49;2.00;99.90
12655;DHT22;6392;44.644;11.448;2024-01-16T09:03:16;2.10;99.90
12655;DHT22;6392;44.644;11.448;2024-01-16T09:05:43;2.10;99.90
12655;DHT22;6392;44.644;11.448;2024-01-16T09:08:10;2.10;99.90
12655;DHT22;6392;44.644;11.448;2024-01-16T09:10:38;2.10;99.90
12655;DHT22;6392;44.644;11.448;2024-01-16T09:13:05;2.10;99.90
12655;DHT22;6392;44.644;11.448;2024-01-16T09:15:32;2.20;99.90
12655;DHT22;6392;44.644;11.448;2024-01-16T09:18:01;2.20;99.90
12655;DHT22;6392;44.644;11.448;2024-01-16T09:20:30;2.30;99.90
12655;DHT22;6392;44.644;11.448;2024-01-16T09:22:57;2.30;99.90
12655;DHT22;6392;44.644;11.448;2024-01-16T09:25:24;2.30;99.90
12655;DHT22;6392;44.644;11.448;2024-01-16T09:27:52;2.40;99.90
12655;DHT22;6392;44.644;11.448;2024-01-16T09:30:20;2.50;99.90
12655;DHT22;6392;44.644;11.448;2024-01-16T09:32:48;2.60;99.90
12655;DHT22;6392;44.644;11.448;2024-01-16T09:35:16;2.60;99.90
12655;DHT22;6392;44.644;11.448;2024-01-16T09:37:43;2.70;99.90
12655;DHT22;6392;44.644;11.448;2024-01-16T09:40:11;2.90;99.90
12655;DHT22;6392;44.644;11.448;2024-01-16T09:42:39;2.90;99.90
12655;DHT22;6392;44.644;11.448;2024-01-16T09:45:07;3.00;99.90
12655;DHT22;6392;44.644;11.448;2024-01-16T09:47:37;3.00;99.90
12655;DHT22;6392;44.644;11.448;2024-01-16T09:50:05;3.10;99.90
12655;DHT22;6392;44.644;11.448;2024-01-16T09:52:34;3.20;99.90
12655;DHT22;6392;44.644;11.448;2024-01-16T09:55:01;3.30;99.90
12655;DHT22;6392;44.644;11.448;2024-01-16T09:57:28;3.50;99.90
12655;DHT22;6392;44.644;11.448;2024-01-16T09:59:56;3.70;99.90
12655;DHT22;6392;44.644;11.448;2024-01-16T10:02:24;3.80;99.90
12655;DHT22;6392;44.644;11.448;2024-01-16T10:04:52;3.90;99.90
12655;DHT22;6392;44.644;11.448;2024-01-16T10:07:20;4.10;99.90
12655;DHT22;6392;44.644;11.448;2024-01-16T10:09:56;4.20;99.90
12655;DHT22;6392;44.644;11.448;2024-01-16T10:12:23;4.40;99.90
12655;DHT22;6392;44.644;11.448;2024-01-16T10:14:51;4.50;99.90
12655;DHT22;6392;44.644;11.448;2024-01-16T10:17:19;4.60;99.90
12655;DHT22;6392;44.644;11.448;2024-01-16T10:19:50;4.70;99.90
12655;DHT22;6392;44.644;11.448;2024-01-16T10:22:21;4.90;99.90
12655;DHT22;6392;44.644;11.448;2024-01-16T10:24:50;5.00;99.90
12655;DHT22;6392;44.644;11.448;2024-01-16T10:27:18;5.10;99.90
12655;DHT22;6392;44.644;11.448;2024-01-16T10:29:55;5.10;99.90
12655;DHT22;6392;44.644;11.448;2024-01-16T10:32:30;5.20;99.90
12655;DHT22;6392;44.644;11.448;2024-01-16T10:35:05;5.20;99.90
12655;DHT22;6392;44.644;11.448;2024-01-16T10:37:43;5.30;99.90
12655;DHT22;6392;44.644;11.448;2024-01-16T10:40:14;5.40;99.90
12655;DHT22;6392;44.644;11.448;2024-01-16T10:42:43;5.50;99.90
12655;DHT22;6392;44.644;11.448;2024-01-16T10:45:17;5.50;99.90
12655;DHT22;6392;44.644;11.448;2024-01-16T10:47:46;5.60;99.90
12655;DHT22;6392;44.644;11.448;2024-01-16T10:50:13;5.70;99.90
12655;DHT22;6392;44.644;11.448;2024-01-16T10:52:46;5.80;99.90
12655;DHT22;6392;44.644;11.448;2024-01-16T10:55:19;5.90;99.90
12655;DHT22;6392;44.644;11.448;2024-01-16T10:57:49;6.00;99.90
12655;DHT22;6392;44.644;11.448;2024-01-16T11:00:18;6.00;99.90
12655;DHT22;6392;44.644;11.448;2024-01-16T11:02:50;6.10;99.90
12655;DHT22;6392;44.644;11.448;2024-01-16T11:05:19;6.20;99.90
12655;DHT22;6392;44.644;11.448;2024-01-16T11:07:48;6.20;99.90
12655;DHT22;6392;44.644;11.448;2024-01-16T11:10:17;6.30;99.90
12655;DHT22;6392;44.644;11.448;2024-01-16T11:12:45;6.30;99.90
12655;DHT22;6392;44.644;11.448;2024-01-16T11:15:15;6.40;99.90
12655;DHT22;6392;44.644;11.448;2024-01-16T11:17:44;6.40;99.90
12655;DHT22;6392;44.644;11.448;2024-01-16T11:20:12;6.50;99.90
12655;DHT22;6392;44.644;11.448;2024-01-16T11:22:42;6.50;99.90
12655;DHT22;6392;44.644;11.448;2024-01-16T11:25:11;6.50;99.90
12655;DHT22;6392;44.644;11.448;2024-01-16T11:27:40;6.60;99.90
12655;DHT22;6392;44.644;11.448;2024-01-16T11:30:08;6.70;99.90
12655;DHT22;6392;44.644;11.448;2024-01-16T11:32:39;6.80;99.90
12655;DHT22;6392;44.644;11.448;2024-01-16T11:35:07;6.90;99.90
12655;DHT22;6392;44.644;11.448;2024-01-16T11:37:35;7.00;99.90
12655;DHT22;6392;44.644;11.448;2024-01-16T11:40:23;7.10;99.90
12655;DHT22;6392;44.644;11.448;2024-01-16T11:42:51;7.10;99.90
12655;DHT22;6392;44.644;11.448;2024-01-16T11:45:50;7.20;99.90
12655;DHT22;6392;44.644;11.448;2024-01-16T11:48:20;7.30;99.90
12655;DHT22;6392;44.644;11.448;2024-01-16T11:50:47;7.40;99.90
12655;DHT22;6392;44.644;11.448;2024-01-16T11:53:34;7.50;99.90
12655;DHT22;6392;44.644;11.448;2024-01-16T11:59:08;7.60;99.90
12655;DHT22;6392;44.644;11.448;2024-01-16T12:01:42;7.60;99.90
12655;DHT22;6392;44.644;11.448;2024-01-16T12:04:11;7.60;99.90
12655;DHT22;6392;44.644;11.448;2024-01-16T12:06:40;7.70;99.90
12655;DHT22;6392;44.644;11.448;2024-01-16T12:09:14;7.80;99.90
12655;DHT22;6392;44.644;11.448;2024-01-16T12:11:41;7.80;99.90
12655;DHT22;6392;44.644;11.448;2024-01-16T12:14:11;7.80;99.90
12655;DHT22;6392;44.644;11.448;2024-01-16T12:16:38;7.80;99.90
12655;DHT22;6392;44.644;11.448;2024-01-16T12:19:06;7.90;99.90
12655;DHT22;6392;44.644;11.448;2024-01-16T12:21:38;8.00;99.90
12655;DHT22;6392;44.644;11.448;2024-01-16T12:24:06;8.00;99.90
12655;DHT22;6392;44.644;11.448;2024-01-16T12:26:33;8.10;99.90
12655;DHT22;6392;44.644;11.448;2024-01-16T12:29:00;8.20;99.90
12655;DHT22;6392;44.644;11.448;2024-01-16T12:31:28;8.30;99.90
12655;DHT22;6392;44.644;11.448;2024-01-16T12:34:05;8.40;99.90
12655;DHT22;6392;44.644;11.448;2024-01-16T12:36:34;8.40;99.90
12655;DHT22;6392;44.644;11.448;2024-01-16T12:39:01;8.40;99.90
12655;DHT22;6392;44.644;11.448;2024-01-16T12:41:34;8.50;99.90
12655;DHT22;6392;44.644;11.448;2024-01-16T12:44:03;8.60;99.90
12655;DHT22;6392;44.644;11.448;2024-01-16T12:46:30;8.60;99.90
12655;DHT22;6392;44.644;11.448;2024-01-16T12:49:01;8.60;99.90
12655;DHT22;6392;44.644;11.448;2024-01-16T12:51:29;8.70;99.90
12655;DHT22;6392;44.644;11.448;2024-01-16T12:54:13;8.70;99.90
12655;DHT22;6392;44.644;11.448;2024-01-16T12:56:40;8.70;99.90
12655;DHT22;6392;44.644;11.448;2024-01-16T12:59:10;8.70;99.90
12655;DHT22;6392;44.644;11.448;2024-01-16T13:01:40;8.60;99.90
12655;DHT22;6392;44.644;11.448;2024-01-16T13:04:07;8.60;99.90
12655;DHT22;6392;44.644;11.448;2024-01-16T13:06:35;8.60;99.90
12655;DHT22;6392;44.644;11.448;2024-01-16T13:09:06;8.60;99.90
12655;DHT22;6392;44.644;11.448;2024-01-16T13:11:47;8.60;99.90
12655;DHT22;6392;44.644;11.448;2024-01-16T13:14:14;8.60;99.90
12655;DHT22;6392;44.644;11.448;2024-01-16T13:16:41;8.60;99.90
12655;DHT22;6392;44.644;11.448;2024-01-16T13:19:08;8.60;99.90
12655;DHT22;6392;44.644;11.448;2024-01-16T13:21:36;8.60;99.90
12655;DHT22;6392;44.644;11.448;2024-01-16T13:24:04;8.60;99.90
12655;DHT22;6392;44.644;11.448;2024-01-16T13:26:31;8.60;99.90
12655;DHT22;6392;44.644;11.448;2024-01-16T13:29:00;8.60;99.90
12655;DHT22;6392;44.644;11.448;2024-01-16T13:31:27;8.60;99.90
12655;DHT22;6392;44.644;11.448;2024-01-16T13:33:54;8.70;99.90
12655;DHT22;6392;44.644;11.448;2024-01-16T13:36:22;8.70;99.90
12655;DHT22;6392;44.644;11.448;2024-01-16T13:38:51;8.80;99.90
12655;DHT22;6392;44.644;11.448;2024-01-16T13:41:19;8.80;99.90
12655;DHT22;6392;44.644;11.448;2024-01-16T13:43:47;8.90;99.90
12655;DHT22;6392;44.644;11.448;2024-01-16T13:46:16;8.90;99.90
12655;DHT22;6392;44.644;11.448;2024-01-16T13:48:44;8.90;99.90
12655;DHT22;6392;44.644;11.448;2024-01-16T13:51:11;8.90;99.90
12655;DHT22;6392;44.644;11.448;2024-01-16T13:53:38;9.00;99.90
12655;DHT22;6392;44.644;11.448;2024-01-16T13:56:05;9.00;99.90
12655;DHT22;6392;44.644;11.448;2024-01-16T13:58:33;9.00;99.90
12655;DHT22;6392;44.644;11.448;2024-01-16T14:01:00;9.00;99.90
12655;DHT22;6392;44.644;11.448;2024-01-16T14:03:31;9.00;99.90
12655;DHT22;6392;44.644;11.448;2024-01-16T14:05:58;9.00;99.90
12655;DHT22;6392;44.644;11.448;2024-01-16T14:08:25;9.10;99.90
12655;DHT22;6392;44.644;11.448;2024-01-16T14:10:52;9.30;99.90
12655;DHT22;6392;44.644;11.448;2024-01-16T14:13:19;9.50;99.90
12655;DHT22;6392;44.644;11.448;2024-01-16T14:15:46;9.60;99.90
12655;DHT22;6392;44.644;11.448;2024-01-16T14:18:13;9.70;99.90
12655;DHT22;6392;44.644;11.448;2024-01-16T14:20:41;9.80;99.90
12655;DHT22;6392;44.644;11.448;2024-01-16T14:23:08;9.80;99.90
12655;DHT22;6392;44.644;11.448;2024-01-16T14:25:36;9.70;99.90
12655;DHT22;6392;44.644;11.448;2024-01-16T14:28:04;9.60;99.90
12655;DHT22;6392;44.644;11.448;2024-01-16T14:30:32;9.50;99.90
12655;DHT22;6392;44.644;11.448;2024-01-16T14:33:02;9.50;99.90
12655;DHT22;6392;44.644;11.448;2024-01-16T14:35:32;9.50;99.90
12655;DHT22;6392;44.644;11.448;2024-01-16T14:38:01;9.70;99.90
12655;DHT22;6392;44.644;11.448;2024-01-16T14:40:28;9.80;99.90
12655;DHT22;6392;44.644;11.448;2024-01-16T14:42:57;9.80;99.90
12655;DHT22;6392;44.644;11.448;2024-01-16T14:45:25;9.80;99.90
12655;DHT22;6392;44.644;11.448;2024-01-16T14:47:53;9.80;99.90
12655;DHT22;6392;44.644;11.448;2024-01-16T14:50:20;9.80;99.90
12655;DHT22;6392;44.644;11.448;2024-01-16T14:52:50;9.70;99.90
12655;DHT22;6392;44.644;11.448;2024-01-16T14:55:19;9.60;99.90
12655;DHT22;6392;44.644;11.448;2024-01-16T14:57:48;9.60;99.90
12655;DHT22;6392;44.644;11.448;2024-01-16T15:00:19;9.60;99.90
12655;DHT22;6392;44.644;11.448;2024-01-16T15:02:48;9.60;99.90
12655;DHT22;6392;44.644;11.448;2024-01-16T15:05:16;9.50;99.90
12655;DHT22;6392;44.644;11.448;2024-01-16T15:07:45;9.50;99.90
12655;DHT22;6392;44.644;11.448;2024-01-16T15:10:12;9.40;99.90
12655;DHT22;6392;44.644;11.448;2024-01-16T15:12:42;9.30;99.90
12655;DHT22;6392;44.644;11.448;2024-01-16T15:15:10;9.30;99.90
12655;DHT22;6392;44.644;11.448;2024-01-16T15:17:39;9.20;99.90
12655;DHT22;6392;44.644;11.448;2024-01-16T15:20:07;9.20;99.90
12655;DHT22;6392;44.644;11.448;2024-01-16T15:22:37;9.20;99.90
12655;DHT22;6392;44.644;11.448;2024-01-16T15:25:05;9.10;99.90
12655;DHT22;6392;44.644;11.448;2024-01-16T15:27:32;9.10;99.90
12655;DHT22;6392;44.644;11.448;2024-01-16T15:30:01;9.10;99.90
12655;DHT22;6392;44.644;11.448;2024-01-16T15:32:29;9.10;99.90
12655;DHT22;6392;44.644;11.448;2024-01-16T15:34:56;9.10;99.90
12655;DHT22;6392;44.644;11.448;2024-01-16T15:37:23;9.10;99.90
12655;DHT22;6392;44.644;11.448;2024-01-16T15:39:50;9.00;99.90
12655;DHT22;6392;44.644;11.448;2024-01-16T15:42:17;9.00;99.90
12655;DHT22;6392;44.644;11.448;2024-01-16T15:44:45;8.90;99.90
12655;DHT22;6392;44.644;11.448;2024-01-16T15:47:13;8.80;99.90
12655;DHT22;6392;44.644;11.448;2024-01-16T15:49:40;8.80;99.90
12655;DHT22;6392;44.644;11.448;2024-01-16T15:52:07;8.70;99.90
12655;DHT22;6392;44.644;11.448;2024-01-16T15:54:34;8.70;99.90